sensor_id;sensor_type;location;lat;lon;timestamp;temperature;humidity
24091;DHT22;12272;52.426;17.100;2024-01-30T00:01:24;1.10;99.90
24091;DHT22;12272;52.426;17.100;2024-01-30T00:06:26;1.00;99.90
24091;DHT22;12272;52.426;17.100;2024-01-30T00:11:29;0.90;99.90
24091;DHT22;12272;52.426;17.100;2024-01-30T00:16:32;0.70;99.90
24091;DHT22;12272;52.426;17.100;2024-01-30T00:21:34;0.60;99.90
24091;DHT22;12272;52.426;17.100;2024-01-30T00:26:37;0.60;99.90
24091;DHT22;12272;52.426;17.100;2024-01-30T00:31:39;0.40;99.90
24091;DHT22;12272;52.426;17.100;2024-01-30T00:36:43;0.10;99.90
24091;DHT22;12272;52.426;17.100;2024-01-30T00:41:46;0.40;99.90
24091;DHT22;12272;52.426;17.100;2024-01-30T00:46:48;0.40;99.90
24091;DHT22;12272;52.426;17.100;2024-01-30T00:51:51;0.50;99.90
24091;DHT22;12272;52.426;17.100;2024-01-30T00:56:54;0.30;99.90
24091;DHT22;12272;52.426;17.100;2024-01-30T01:01:56;0.60;99.90
24091;DHT22;12272;52.426;17.100;2024-01-30T01:06:59;0.70;99.90
24091;DHT22;12272;52.426;17.100;2024-01-30T01:12:02;0.50;99.90
24091;DHT22;12272;52.426;17.100;2024-01-30T01:17:04;0.70;99.90
24091;DHT22;12272;52.426;17.100;2024-01-30T01:22:07;0.60;99.90
24091;DHT22;12272;52.426;17.100;2024-01-30T01:27:10;0.50;99.90
24091;DHT22;12272;52.426;17.100;2024-01-30T01:32:13;0.40;99.90
24091;DHT22;12272;52.426;17.100;2024-01-30T01:37:16;0.10;99.90
24091;DHT22;12272;52.426;17.100;2024-01-30T01:42:18;0.00;99.90
24091;DHT22;12272;52.426;17.100;2024-01-30T01:47:21;-0.20;99.90
24091;DHT22;12272;52.426;17.100;2024-01-30T01:52:23;0.00;99.90
24091;DHT22;12272;52.426;17.100;2024-01-30T01:57:26;0.00;99.90
24091;DHT22;12272;52.426;17.100;2024-01-30T02:02:31;0.10;99.90
24091;DHT22;12272;52.426;17.100;2024-01-30T02:07:37;0.20;99.90
24091;DHT22;12272;52.426;17.100;2024-01-30T02:12:40;0.40;99.90
24091;DHT22;12272;52.426;17.100;2024-01-30T02:17:42;0.40;99.90
24091;DHT22;12272;52.426;17.100;2024-01-30T02:22:45;0.30;99.90
24091;DHT22;12272;52.426;17.100;2024-01-30T02:27:48;0.30;99.90
24091;DHT22;12272;52.426;17.100;2024-01-30T02:32:51;0.30;99.90
24091;DHT22;12272;52.426;17.100;2024-01-30T02:37:54;0.40;99.90
24091;DHT22;12272;52.426;17.100;2024-01-30T02:42:58;0.20;99.90
24091;DHT22;12272;52.426;17.100;2024-01-30T02:48:01;-0.10;99.90
24091;DHT22;12272;52.426;17.100;2024-01-30T02:53:04;-0.30;99.90
24091;DHT22;12272;52.426;17.100;2024-01-30T02:58:06;-0.40;99.90
24091;DHT22;12272;52.426;17.100;2024-01-30T03:03:09;0.20;99.90
24091;DHT22;12272;52.426;17.100;2024-01-30T03:08:11;0.40;99.90
24091;DHT22;12272;52.426;17.100;2024-01-30T03:13:14;0.30;99.90
24091;DHT22;12272;52.426;17.100;2024-01-30T03:18:17;0.10;99.90
24091;DHT22;12272;52.426;17.100;2024-01-30T03:23:20;-0.10;99.90
24091;DHT22;12272;52.426;17.100;2024-01-30T03:28:22;-0.10;99.90
24091;DHT22;12272;52.426;17.100;2024-01-30T03:33:25;-0.10;99.90
24091;DHT22;12272;52.426;17.100;2024-01-30T03:38:27;-0.30;99.90
24091;DHT22;12272;52.426;17.100;2024-01-30T03:43:30;-0.20;99.90
24091;DHT22;12272;52.426;17.100;2024-01-30T03:48:32;-0.10;99.90
24091;DHT22;12272;52.426;17.100;2024-01-30T03:53:36;-0.20;99.90
24091;DHT22;12272;52.426;17.100;2024-01-30T03:58:38;-0.20;99.90
24091;DHT22;12272;52.426;17.100;2024-01-30T04:03:41;0.10;99.90
24091;DHT22;12272;52.426;17.100;2024-01-30T04:08:44;0.30;99.90
24091;DHT22;12272;52.426;17.100;2024-01-30T04:13:47;0.20;99.90
24091;DHT22;12272;52.426;17.100;2024-01-30T04:18:52;0.40;99.90
24091;DHT22;12272;52.426;17.100;2024-01-30T04:23:55;0.30;99.90
24091;DHT22;12272;52.426;17.100;2024-01-30T04:28:57;0.00;99.90
24091;DHT22;12272;52.426;17.100;2024-01-30T04:33:59;0.20;99.90
24091;DHT22;12272;52.426;17.100;2024-01-30T04:39:02;0.50;99.90
24091;DHT22;12272;52.426;17.100;2024-01-30T04:44:06;0.50;99.90
24091;DHT22;12272;52.426;17.100;2024-01-30T04:49:09;0.70;99.90
24091;DHT22;12272;52.426;17.100;2024-01-30T04:54:11;0.80;99.90
24091;DHT22;12272;52.426;17.100;2024-01-30T04:59:14;1.00;99.90
24091;DHT22;12272;52.426;17.100;2024-01-30T05:04:16;0.80;99.90
24091;DHT22;12272;52.426;17.100;2024-01-30T05:09:19;0.80;99.90
24091;DHT22;12272;52.426;17.100;2024-01-30T05:14:21;1.00;99.90
24091;DHT22;12272;52.426;17.100;2024-01-30T05:19:24;1.20;99.90
24091;DHT22;12272;52.426;17.100;2024-01-30T05:24:27;1.20;99.90
24091;DHT22;12272;52.426;17.100;2024-01-30T05:29:29;0.90;99.90
24091;DHT22;12272;52.426;17.100;2024-01-30T05:34:32;1.30;99.90
24091;DHT22;12272;52.426;17.100;2024-01-30T05:39:36;1.20;99.90
24091;DHT22;12272;52.426;17.100;2024-01-30T05:44:38;0.80;99.90
24091;DHT22;12272;52.426;17.100;2024-01-30T05:49:41;0.60;99.90
24091;DHT22;12272;52.426;17.100;2024-01-30T05:54:44;0.70;99.90
24091;DHT22;12272;52.426;17.100;2024-01-30T05:59:46;0.60;99.90
24091;DHT22;12272;52.426;17.100;2024-01-30T06:04:50;0.80;99.90
24091;DHT22;12272;52.426;17.100;2024-01-30T06:09:52;0.60;99.90
24091;DHT22;12272;52.426;17.100;2024-01-30T06:14:55;0.90;99.90
24091;DHT22;12272;52.426;17.100;2024-01-30T06:19:59;0.60;99.90
24091;DHT22;12272;52.426;17.100;2024-01-30T06:25:02;0.50;99.90
24091;DHT22;12272;52.426;17.100;2024-01-30T06:30:05;0.60;99.90
24091;DHT22;12272;52.426;17.100;2024-01-30T06:35:08;0.60;99.90
24091;DHT22;12272;52.426;17.100;2024-01-30T06:40:12;0.50;99.90
24091;DHT22;12272;52.426;17.100;2024-01-30T06:45:15;0.60;99.90
24091;DHT22;12272;52.426;17.100;2024-01-30T06:50:18;0.80;99.90
24091;DHT22;12272;52.426;17.100;2024-01-30T06:55:20;0.90;99.90
24091;DHT22;12272;52.426;17.100;2024-01-30T07:00:23;1.20;99.90
24091;DHT22;12272;52.426;17.100;2024-01-30T07:05:26;1.50;99.90
24091;DHT22;12272;52.426;17.100;2024-01-30T07:10:28;1.70;99.90
24091;DHT22;12272;52.426;17.100;2024-01-30T07:15:31;1.40;99.90
24091;DHT22;12272;52.426;17.100;2024-01-30T07:20:34;1.30;99.90
24091;DHT22;12272;52.426;17.100;2024-01-30T07:25:40;1.20;99.90
24091;DHT22;12272;52.426;17.100;2024-01-30T07:30:43;1.60;99.90
24091;DHT22;12272;52.426;17.100;2024-01-30T07:35:46;1.70;99.90
24091;DHT22;12272;52.426;17.100;2024-01-30T07:40:49;2.10;99.90
24091;DHT22;12272;52.426;17.100;2024-01-30T07:45:52;1.90;99.90
24091;DHT22;12272;52.426;17.100;2024-01-30T07:50:54;3.80;99.90
24091;DHT22;12272;52.426;17.100;2024-01-30T07:55:57;4.30;99.90
24091;DHT22;12272;52.426;17.100;2024-01-30T08:00:59;3.80;99.90
24091;DHT22;12272;52.426;17.100;2024-01-30T08:06:03;5.00;99.90
24091;DHT22;12272;52.426;17.100;2024-01-30T08:11:06;5.00;99.90
24091;DHT22;12272;52.426;17.100;2024-01-30T08:16:09;4.30;99.90
24091;DHT22;12272;52.426;17.100;2024-01-30T08:21:16;4.20;99.90
24091;DHT22;12272;52.426;17.100;2024-01-30T08:26:19;4.30;99.90
24091;DHT22;12272;52.426;17.100;2024-01-30T08:31:21;4.50;99.90
24091;DHT22;12272;52.426;17.100;2024-01-30T08:36:24;4.60;99.90
24091;DHT22;12272;52.426;17.100;2024-01-30T08:41:27;5.00;99.90
24091;DHT22;12272;52.426;17.100;2024-01-30T08:46:30;5.00;99.90
24091;DHT22;12272;52.426;17.100;2024-01-30T08:51:32;5.10;99.90
24091;DHT22;12272;52.426;17.100;2024-01-30T08:56:36;5.20;99.90
24091;DHT22;12272;52.426;17.100;2024-01-30T09:01:38;5.30;99.90
24091;DHT22;12272;52.426;17.100;2024-01-30T09:06:45;5.10;99.90
24091;DHT22;12272;52.426;17.100;2024-01-30T09:11:48;5.30;99.90
24091;DHT22;12272;52.426;17.100;2024-01-30T09:16:50;5.50;99.90
24091;DHT22;12272;52.426;17.100;2024-01-30T09:21:53;5.70;99.90
24091;DHT22;12272;52.426;17.100;2024-01-30T09:26:55;5.60;99.90
24091;DHT22;12272;52.426;17.100;2024-01-30T09:31:58;5.40;99.90
24091;DHT22;12272;52.426;17.100;2024-01-30T09:37:01;5.70;99.90
24091;DHT22;12272;52.426;17.100;2024-01-30T09:47:13;5.80;99.90
24091;DHT22;12272;52.426;17.100;2024-01-30T09:52:17;5.80;99.90
24091;DHT22;12272;52.426;17.100;2024-01-30T09:57:21;5.80;99.90
24091;DHT22;12272;52.426;17.100;2024-01-30T10:02:23;5.90;99.90
24091;DHT22;12272;52.426;17.100;2024-01-30T10:07:26;6.00;99.90
24091;DHT22;12272;52.426;17.100;2024-01-30T10:12:29;6.10;99.90
24091;DHT22;12272;52.426;17.100;2024-01-30T10:17:32;6.20;99.90
24091;DHT22;12272;52.426;17.100;2024-01-30T10:22:36;5.80;99.90
24091;DHT22;12272;52.426;17.100;2024-01-30T10:27:39;5.30;99.90
24091;DHT22;12272;52.426;17.100;2024-01-30T10:32:42;5.00;99.90
24091;DHT22;12272;52.426;17.100;2024-01-30T10:37:47;4.90;99.90
24091;DHT22;12272;52.426;17.100;2024-01-30T10:42:51;5.00;99.90
24091;DHT22;12272;52.426;17.100;2024-01-30T10:47:58;5.10;99.90
24091;DHT22;12272;52.426;17.100;2024-01-30T10:53:04;5.20;99.90
24091;DHT22;12272;52.426;17.100;2024-01-30T10:58:07;5.50;99.90
24091;DHT22;12272;52.426;17.100;2024-01-30T11:03:11;5.80;99.90
24091;DHT22;12272;52.426;17.100;2024-01-30T11:08:14;6.90;99.90
24091;DHT22;12272;52.426;17.100;2024-01-30T11:13:19;7.20;99.90
24091;DHT22;12272;52.426;17.100;2024-01-30T11:18:25;7.50;99.90
24091;DHT22;12272;52.426;17.100;2024-01-30T11:23:28;7.80;99.90
24091;DHT22;12272;52.426;17.100;2024-01-30T11:28:34;7.70;99.90
24091;DHT22;12272;52.426;17.100;2024-01-30T11:33:37;7.60;99.90
24091;DHT22;12272;52.426;17.100;2024-01-30T11:38:40;7.80;99.90
24091;DHT22;12272;52.426;17.100;2024-01-30T11:43:53;8.00;99.90
24091;DHT22;12272;52.426;17.100;2024-01-30T11:48:56;8.10;99.90
24091;DHT22;12272;52.426;17.100;2024-01-30T11:53:58;8.00;99.90
24091;DHT22;12272;52.426;17.100;2024-01-30T11:59:01;8.10;99.90
24091;DHT22;12272;52.426;17.100;2024-01-30T12:04:04;8.40;99.90
24091;DHT22;12272;52.426;17.100;2024-01-30T12:09:12;8.60;99.90
24091;DHT22;12272;52.426;17.100;2024-01-30T12:14:16;8.40;99.90
24091;DHT22;12272;52.426;17.100;2024-01-30T12:19:23;8.30;99.90
24091;DHT22;12272;52.426;17.100;2024-01-30T12:24:27;8.30;99.90
24091;DHT22;12272;52.426;17.100;2024-01-30T12:29:32;8.30;99.90
24091;DHT22;12272;52.426;17.100;2024-01-30T12:34:41;8.10;99.90
24091;DHT22;12272;52.426;17.100;2024-01-30T12:39:58;8.30;99.90
24091;DHT22;12272;52.426;17.100;2024-01-30T12:45:04;8.60;99.90
24091;DHT22;12272;52.426;17.100;2024-01-30T12:50:07;9.10;99.90
24091;DHT22;12272;52.426;17.100;2024-01-30T12:55:10;9.30;99.90
24091;DHT22;12272;52.426;17.100;2024-01-30T13:00:13;9.30;99.90
24091;DHT22;12272;52.426;17.100;2024-01-30T13:05:15;9.30;99.90
24091;DHT22;12272;52.426;17.100;2024-01-30T13:10:18;9.10;99.90
24091;DHT22;12272;52.426;17.100;2024-01-30T13:15:21;9.00;99.90
24091;DHT22;12272;52.426;17.100;2024-01-30T13:20:24;9.00;99.90
24091;DHT22;12272;52.426;17.100;2024-01-30T13:25:27;8.90;99.90
24091;DHT22;12272;52.426;17.100;2024-01-30T13:30:30;8.90;99.90
24091;DHT22;12272;52.426;17.100;2024-01-30T13:35:32;8.80;99.90
24091;DHT22;12272;52.426;17.100;2024-01-30T13:40:35;8.80;99.90
24091;DHT22;12272;52.426;17.100;2024-01-30T13:45:38;8.70;99.90
24091;DHT22;12272;52.426;17.100;2024-01-30T13:50:40;8.70;99.90
24091;DHT22;12272;52.426;17.100;2024-01-30T13:55:43;8.80;99.90
24091;DHT22;12272;52.426;17.100;2024-01-30T14:00:45;8.80;99.90
24091;DHT22;12272;52.426;17.100;2024-01-30T14:05:48;8.80;99.90
24091;DHT22;12272;52.426;17.100;2024-01-30T14:10:51;8.70;99.90
24091;DHT22;12272;52.426;17.100;2024-01-30T14:15:53;8.50;99.90
24091;DHT22;12272;52.426;17.100;2024-01-30T14:20:56;8.30;99.90
24091;DHT22;12272;52.426;17.100;2024-01-30T14:25:59;8.00;99.90
24091;DHT22;12272;52.426;17.100;2024-01-30T14:31:01;7.70;99.90
24091;DHT22;12272;52.426;17.100;2024-01-30T14:36:04;7.50;99.90
24091;DHT22;12272;52.426;17.100;2024-01-30T14:41:07;7.30;99.90
24091;DHT22;12272;52.426;17.100;2024-01-30T14:46:09;7.20;99.90
24091;DHT22;12272;52.426;17.100;2024-01-30T14:51:13;7.10;99.90
24091;DHT22;12272;52.426;17.100;2024-01-30T14:56:16;6.90;99.90
24091;DHT22;12272;52.426;17.100;2024-01-30T15:01:19;6.80;99.90
24091;DHT22;12272;52.426;17.100;2024-01-30T15:06:22;6.60;99.90
24091;DHT22;12272;52.426;17.100;2024-01-30T15:11:26;6.40;99.90
24091;DHT22;12272;52.426;17.100;2024-01-30T15:16:28;6.20;99.90
24091;DHT22;12272;52.426;17.100;2024-01-30T15:21:31;6.20;99.90
24091;DHT22;12272;52.426;17.100;2024-01-30T15:26:34;6.00;99.90
24091;DHT22;12272;52.426;17.100;2024-01-30T15:31:36;5.90;99.90
24091;DHT22;12272;52.426;17.100;2024-01-30T15:36:39;6.10;99.90
24091;DHT22;12272;52.426;17.100;2024-01-30T15:46:44;5.30;99.90
24091;DHT22;12272;52.426;17.100;2024-01-30T15:51:46;5.20;99.90
24091;DHT22;12272;52.426;17.100;2024-01-30T15:56:50;4.70;99.90
24091;DHT22;12272;52.426;17.100;2024-01-30T16:01:52;4.90;99.90
24091;DHT22;12272;52.426;17.100;2024-01-30T16:06:55;4.70;99.90
24091;DHT22;12272;52.426;17.100;2024-01-30T16:11:58;4.60;99.90
24091;DHT22;12272;52.426;17.100;2024-01-30T16:17:01;4.60;99.90
24091;DHT22;12272;52.426;17.100;2024-01-30T16:22:04;4.60;99.90
24091;DHT22;12272;52.426;17.100;2024-01-30T16:27:06;4.20;99.90
24091;DHT22;12272;52.426;17.100;2024-01-30T16:32:09;4.30;99.90
24091;DHT22;12272;52.426;17.100;2024-01-30T16:37:11;5.70;99.90
24091;DHT22;12272;52.426;17.100;2024-01-30T16:42:14;5.50;99.90
24091;DHT22;12272;52.426;17.100;2024-01-30T16:47:17;5.00;99.90
24091;DHT22;12272;52.426;17.100;2024-01-30T16:52:19;4.80;99.90
24091;DHT22;12272;52.426;17.100;2024-01-30T16:57:22;4.50;99.90
24091;DHT22;12272;52.426;17.100;2024-01-30T17:02:25;4.60;99.90
24091;DHT22;12272;52.426;17.100;2024-01-30T17:07:28;4.50;99.90
24091;DHT22;12272;52.426;17.100;2024-01-30T17:12:36;4.50;99.90
24091;DHT22;12272;52.426;17.100;2024-01-30T17:17:38;4.40;99.90
24091;DHT22;12272;52.426;17.100;2024-01-30T17:22:41;4.40;99.90
24091;DHT22;12272;52.426;17.100;2024-01-30T17:27:47;4.40;99.90
24091;DHT22;12272;52.426;17.100;2024-01-30T17:32:51;4.40;99.90
24091;DHT22;12272;52.426;17.100;2024-01-30T17:37:54;4.60;99.90
24091;DHT22;12272;52.426;17.100;2024-01-30T17:42:56;4.30;99.90
24091;DHT22;12272;52.426;17.100;2024-01-30T17:48:00;4.30;99.90
24091;DHT22;12272;52.426;17.100;2024-01-30T17:53:04;5.70;99.90
24091;DHT22;12272;52.426;17.100;2024-01-30T17:58:06;5.80;99.90
24091;DHT22;12272;52.426;17.100;2024-01-30T18:03:09;5.00;99.90
24091;DHT22;12272;52.426;17.100;2024-01-30T18:08:11;3.70;99.90
24091;DHT22;12272;52.426;17.100;2024-01-30T18:13:14;3.50;99.90
24091;DHT22;12272;52.426;17.100;2024-01-30T18:18:19;3.00;99.90
24091;DHT22;12272;52.426;17.100;2024-01-30T18:23:21;2.70;99.90
24091;DHT22;12272;52.426;17.100;2024-01-30T18:28:24;2.50;99.90
24091;DHT22;12272;52.426;17.100;2024-01-30T18:33:26;2.60;99.90
24091;DHT22;12272;52.426;17.100;2024-01-30T18:38:29;2.60;99.90
24091;DHT22;12272;52.426;17.100;2024-01-30T18:43:32;2.60;99.90
24091;DHT22;12272;52.426;17.100;2024-01-30T18:48:37;2.50;99.90
24091;DHT22;12272;52.426;17.100;2024-01-30T18:53:39;2.20;99.90
24091;DHT22;12272;52.426;17.100;2024-01-30T18:58:42;2.20;99.90
24091;DHT22;12272;52.426;17.100;2024-01-30T19:03:45;2.60;99.90
24091;DHT22;12272;52.426;17.100;2024-01-30T19:08:48;3.10;99.90
24091;DHT22;12272;52.426;17.100;2024-01-30T19:13:52;3.30;99.90
24091;DHT22;12272;52.426;17.100;2024-01-30T19:18:58;3.40;99.90
24091;DHT22;12272;52.426;17.100;2024-01-30T19:24:00;3.50;99.90
24091;DHT22;12272;52.426;17.100;2024-01-30T19:29:03;3.50;99.90
24091;DHT22;12272;52.426;17.100;2024-01-30T19:34:05;3.40;99.90
24091;DHT22;12272;52.426;17.100;2024-01-30T19:39:08;3.50;99.90
24091;DHT22;12272;52.426;17.100;2024-01-30T19:44:15;3.80;99.90
24091;DHT22;12272;52.426;17.100;2024-01-30T19:49:20;4.00;99.90
24091;DHT22;12272;52.426;17.100;2024-01-30T19:54:23;3.70;99.90
24091;DHT22;12272;52.426;17.100;2024-01-30T19:59:29;3.60;99.90
24091;DHT22;12272;52.426;17.100;2024-01-30T20:04:38;3.90;99.90
24091;DHT22;12272;52.426;17.100;2024-01-30T20:09:41;4.00;99.90
24091;DHT22;12272;52.426;17.100;2024-01-30T20:14:44;3.80;99.90
24091;DHT22;12272;52.426;17.100;2024-01-30T20:19:47;4.10;99.90
24091;DHT22;12272;52.426;17.100;2024-01-30T20:24:50;4.20;99.90
24091;DHT22;12272;52.426;17.100;2024-01-30T20:30:06;4.20;99.90
24091;DHT22;12272;52.426;17.100;2024-01-30T20:35:12;5.10;99.90
24091;DHT22;12272;52.426;17.100;2024-01-30T20:40:15;6.90;99.90
24091;DHT22;12272;52.426;17.100;2024-01-30T20:45:20;7.00;99.90
24091;DHT22;12272;52.426;17.100;2024-01-30T20:50:22;6.80;99.90
24091;DHT22;12272;52.426;17.100;2024-01-30T20:55:25;6.30;99.90
24091;DHT22;12272;52.426;17.100;2024-01-30T21:00:27;6.00;99.90
24091;DHT22;12272;52.426;17.100;2024-01-30T21:05:30;6.00;99.90
24091;DHT22;12272;52.426;17.100;2024-01-30T21:10:32;5.70;99.90
24091;DHT22;12272;52.426;17.100;2024-01-30T21:15:35;6.10;99.90
24091;DHT22;12272;52.426;17.100;2024-01-30T21:20:37;6.20;99.90
24091;DHT22;12272;52.426;17.100;2024-01-30T21:25:40;5.90;99.90
24091;DHT22;12272;52.426;17.100;2024-01-30T21:30:42;5.70;99.90
24091;DHT22;12272;52.426;17.100;2024-01-30T21:35:45;5.70;99.90
24091;DHT22;12272;52.426;17.100;2024-01-30T21:40:48;6.00;99.90
24091;DHT22;12272;52.426;17.100;2024-01-30T21:45:50;5.80;99.90
24091;DHT22;12272;52.426;17.100;2024-01-30T21:50:53;5.30;99.90
24091;DHT22;12272;52.426;17.100;2024-01-30T21:55:55;5.50;99.90
24091;DHT22;12272;52.426;17.100;2024-01-30T22:00:58;5.20;99.90
24091;DHT22;12272;52.426;17.100;2024-01-30T22:06:00;5.20;99.90
24091;DHT22;12272;52.426;17.100;2024-01-30T22:11:03;5.20;99.90
24091;DHT22;12272;52.426;17.100;2024-01-30T22:16:09;5.20;99.90
24091;DHT22;12272;52.426;17.100;2024-01-30T22:21:11;5.20;99.90
24091;DHT22;12272;52.426;17.100;2024-01-30T22:26:18;5.30;99.90
24091;DHT22;12272;52.426;17.100;2024-01-30T22:31:21;5.20;99.90
24091;DHT22;12272;52.426;17.100;2024-01-30T22:36:24;5.50;99.90
24091;DHT22;12272;52.426;17.100;2024-01-30T22:41:26;5.30;99.90
24091;DHT22;12272;52.426;17.100;2024-01-30T22:46:30;5.90;99.90
24091;DHT22;12272;52.426;17.100;2024-01-30T22:51:33;6.10;99.90
24091;DHT22;12272;52.426;17.100;2024-01-30T22:56:36;6.30;99.90
24091;DHT22;12272;52.426;17.100;2024-01-30T23:01:38;6.00;99.90
24091;DHT22;12272;52.426;17.100;2024-01-30T23:06:42;6.10;99.90
24091;DHT22;12272;52.426;17.100;2024-01-30T23:11:48;6.20;99.90
24091;DHT22;12272;52.426;17.100;2024-01-30T23:16:50;6.60;99.90
24091;DHT22;12272;52.426;17.100;2024-01-30T23:21:53;7.20;99.90
24091;DHT22;12272;52.426;17.100;2024-01-30T23:26:56;7.50;99.90
24091;DHT22;12272;52.426;17.100;2024-01-30T23:31:58;7.90;99.90
24091;DHT22;12272;52.426;17.100;2024-01-30T23:42:04;9.50;99.90
24091;DHT22;12272;52.426;17.100;2024-01-30T23:47:06;9.50;99.90
24091;DHT22;12272;52.426;17.100;2024-01-30T23:52:09;10.10;99.90
24091;DHT22;12272;52.426;17.100;2024-01-30T23:57:12;11.10;99.90
